createdAt,value
2022-11-01T05:00:36.537Z,29.20
2022-11-01T05:11:41.322Z,36.60
2022-11-01T05:22:41.192Z,21.10
2022-11-01T05:33:41.080Z,29.00
2022-11-01T05:44:40.940Z,23.70
2022-11-01T05:55:40.817Z,19.70
2022-11-01T06:06:40.696Z,17.60
2022-11-01T06:17:40.574Z,9.90
2022-11-01T06:28:40.452Z,10.00
2022-11-01T06:39:40.319Z,13.70
2022-11-01T06:50:40.197Z,9.20
2022-11-01T07:01:40.236Z,12.70
2022-11-01T07:12:39.958Z,10.60
2022-11-01T07:23:39.856Z,7.10
2022-11-01T07:34:39.701Z,10.90
2022-11-01T07:45:39.576Z,7.00
2022-11-01T07:56:39.462Z,10.50
2022-11-01T08:07:39.339Z,5.60
2022-11-01T08:18:39.213Z,6.30
2022-11-01T08:29:39.103Z,11.20
2022-11-01T08:40:38.962Z,5.00
2022-11-01T08:51:38.838Z,9.50
2022-11-01T09:02:38.805Z,6.30
2022-11-01T09:13:38.591Z,4.60
2022-11-01T09:24:38.489Z,9.00
2022-11-01T09:35:38.344Z,4.80
2022-11-01T09:46:38.252Z,6.20
2022-11-01T09:57:38.104Z,3.80
2022-11-01T10:08:37.980Z,9.30
2022-11-01T10:19:38.513Z,4.70
2022-11-01T10:30:37.746Z,5.60
2022-11-01T10:41:37.619Z,4.70
2022-11-01T10:52:37.491Z,0.80
2022-11-01T11:03:37.373Z,4.80
2022-11-01T11:14:37.259Z,1.30
2022-11-01T11:25:37.151Z,2.50
2022-11-01T11:36:37.106Z,5.00
2022-11-01T11:47:36.878Z,5.70
2022-11-01T11:58:36.751Z,3.60
2022-11-01T12:09:36.645Z,4.70
2022-11-01T12:20:36.505Z,3.40
2022-11-01T12:31:36.441Z,1.60
2022-11-01T12:42:36.253Z,0.90
2022-11-01T12:53:36.133Z,4.90
2022-11-01T13:04:36.007Z,3.30
2022-11-01T13:15:35.891Z,2.90
2022-11-01T13:26:35.765Z,4.10
2022-11-01T13:37:35.633Z,1.40
2022-11-01T13:48:35.506Z,3.70
2022-11-01T13:59:35.384Z,6.10
2022-11-01T14:10:35.266Z,2.70
2022-11-01T14:21:35.157Z,2.30
2022-11-01T14:32:35.045Z,4.90
2022-11-01T14:43:34.900Z,1.30
2022-11-01T14:54:34.772Z,0.80
2022-11-01T15:05:34.659Z,0.80
2022-11-01T15:16:34.540Z,1.40
2022-11-01T15:27:34.417Z,2.00
2022-11-01T15:38:34.300Z,8.30
2022-11-01T15:49:34.213Z,3.60
2022-11-01T16:00:34.071Z,6.80
2022-11-01T16:11:33.922Z,7.70
2022-11-01T16:22:33.814Z,8.00
2022-11-01T16:33:33.683Z,0.90
2022-11-01T16:44:33.552Z,4.30
2022-11-01T16:55:34.935Z,4.90
2022-11-01T17:06:38.655Z,2.50
2022-11-01T17:17:33.269Z,3.90
2022-11-01T17:28:33.072Z,1.90
2022-11-01T17:39:32.943Z,5.90
2022-11-01T17:50:32.813Z,3.00
2022-11-01T18:01:32.818Z,4.60
2022-11-01T18:12:32.571Z,7.50
2022-11-01T18:23:32.454Z,4.10
2022-11-01T18:34:32.334Z,11.20
2022-11-01T18:45:45.460Z,4.30
2022-11-01T18:56:32.073Z,6.00
2022-11-01T19:07:57.095Z,4.10
2022-11-01T19:18:31.855Z,5.20
2022-11-01T19:29:31.705Z,8.50
2022-11-01T19:40:31.582Z,3.60
2022-11-01T19:51:31.465Z,8.10
2022-11-01T20:02:31.460Z,8.50
2022-11-01T20:13:31.248Z,10.00
2022-11-01T20:24:31.113Z,10.90
2022-11-01T20:35:30.978Z,9.90
2022-11-01T20:46:30.907Z,13.00
2022-11-01T20:57:30.730Z,10.20
2022-11-01T21:08:30.621Z,5.30
2022-11-01T21:19:30.490Z,12.10
2022-11-01T21:30:30.358Z,7.10
2022-11-01T21:41:30.251Z,6.50
2022-11-01T21:52:30.112Z,12.90
